Time;durP1;ratioP1;P1;durP2;ratioP2;P2;SDS_P1;SDS_P2;PMS_P1;PMS_P2;Temp;Humidity;BMP_temperature;BMP_pressure;BME280_temperature;BME280_humidity;BME280_pressure;Samples;Min_cycle;Max_cycle;Signal;HPM_P1;HPM_P2
2022/07/05 00:01:07;;;;;;;2.25;0.90;;;19.80;74.80;;;;;;6215625;23;20150;-75
2022/07/05 00:03:35;;;;;;;1.40;1.00;;;19.80;75.70;;;;;;6215972;23;20146;-75
2022/07/05 00:06:01;;;;;;;1.95;0.93;;;19.80;75.40;;;;;;6217001;23;20182;-76
2022/07/05 00:08:29;;;;;;;2.53;1.30;;;19.80;75.70;;;;;;6215744;23;20175;-76
2022/07/05 00:10:55;;;;;;;2.95;1.23;;;19.70;76.00;;;;;;6217180;23;20146;-74
2022/07/05 00:13:20;;;;;;;1.98;1.20;;;19.70;76.30;;;;;;6216119;23;20160;-76
2022/07/05 00:15:46;;;;;;;2.13;1.00;;;19.70;76.70;;;;;;6216045;23;20235;-73
2022/07/05 00:18:12;;;;;;;2.47;1.35;;;19.60;76.80;;;;;;6215801;23;20157;-76
2022/07/05 00:20:37;;;;;;;2.63;1.27;;;19.60;77.20;;;;;;6214960;23;20179;-76
2022/07/05 00:23:05;;;;;;;1.95;1.00;;;19.60;77.50;;;;;;6215885;23;20164;-76
2022/07/05 00:25:30;;;;;;;1.90;1.10;;;19.50;77.80;;;;;;6214193;23;20202;-76
2022/07/05 00:27:56;;;;;;;1.52;1.10;;;19.50;78.10;;;;;;6215148;23;20153;-76
2022/07/05 00:30:24;;;;;;;1.70;1.20;;;19.50;78.40;;;;;;6215589;23;20153;-76
2022/07/05 00:32:50;;;;;;;2.20;1.30;;;19.50;79.30;;;;;;6215291;23;20229;-75
2022/07/05 00:35:18;;;;;;;1.88;1.25;;;19.40;78.90;;;;;;6214552;23;20185;-77
2022/07/05 00:37:46;;;;;;;1.60;1.23;;;19.40;79.50;;;;;;6215069;23;20169;-73
2022/07/05 00:40:14;;;;;;;1.80;1.38;;;19.40;79.30;;;;;;6216239;23;20207;-75
2022/07/05 00:42:42;;;;;;;5.07;1.30;;;19.40;79.60;;;;;;6216741;23;20180;-73
2022/07/05 00:45:12;;;;;;;2.25;1.30;;;19.40;80.30;;;;;;6223784;23;20160;-74
2022/07/05 00:47:38;;;;;;;1.73;1.25;;;19.40;80.70;;;;;;6217540;23;20177;-74
2022/07/05 00:50:04;;;;;;;2.50;1.60;;;19.40;80.30;;;;;;6216083;23;20157;-73
2022/07/05 00:52:33;;;;;;;1.98;1.30;;;19.30;80.30;;;;;;6214861;23;20181;-76
2022/07/05 00:54:59;;;;;;;3.15;1.40;;;19.30;80.50;;;;;;6215600;23;20149;-75
2022/07/05 00:57:25;;;;;;;3.22;1.60;;;19.30;80.70;;;;;;6215383;23;20183;-74
2022/07/05 00:59:51;;;;;;;2.17;1.30;;;19.20;80.80;;;;;;6215280;23;20280;-76
2022/07/05 01:02:19;;;;;;;2.58;1.30;;;19.20;81.20;;;;;;6215784;23;20167;-76
2022/07/05 01:04:47;;;;;;;1.83;1.15;;;19.10;81.80;;;;;;6214702;23;20244;-76
2022/07/05 01:07:13;;;;;;;1.95;1.30;;;19.10;81.60;;;;;;6215003;23;20284;-73
2022/07/05 01:09:39;;;;;;;3.38;1.50;;;19.10;81.80;;;;;;6215465;23;20204;-75
2022/07/05 01:12:08;;;;;;;2.88;1.45;;;19.00;81.80;;;;;;6215475;23;20188;-77
2022/07/05 01:14:36;;;;;;;2.05;1.27;;;18.90;82.00;;;;;;6214841;23;20154;-76
2022/07/05 01:17:07;;;;;;;2.95;1.58;;;18.90;82.90;;;;;;6215844;23;20212;-76
2022/07/05 01:19:33;;;;;;;2.40;1.30;;;18.80;83.20;;;;;;6217798;23;20243;-74
2022/07/05 01:22:03;;;;;;;3.03;1.40;;;18.70;82.90;;;;;;6216241;23;20165;-75
2022/07/05 01:24:29;;;;;;;1.85;1.30;;;18.60;83.70;;;;;;6215678;23;20172;-76
2022/07/05 01:26:58;;;;;;;2.75;1.50;;;18.60;83.60;;;;;;6215468;23;20178;-76
2022/07/05 01:29:23;;;;;;;2.40;1.27;;;18.50;83.70;;;;;;6215307;23;20236;-77
2022/07/05 01:31:49;;;;;;;1.50;1.23;;;18.40;84.00;;;;;;6214631;23;20177;-75
2022/07/05 01:34:15;;;;;;;1.52;1.40;;;18.40;84.50;;;;;;6189602;23;20185;-74
2022/07/05 01:36:42;;;;;;;2.13;1.55;;;18.30;84.70;;;;;;6215100;23;20264;-76
2022/07/05 01:39:11;;;;;;;1.48;1.38;;;18.30;85.10;;;;;;6214502;23;20154;-76
2022/07/05 01:41:37;;;;;;;2.55;1.45;;;18.30;86.20;;;;;;6214871;23;20209;-77
2022/07/05 01:44:05;;;;;;;2.20;1.60;;;18.20;85.90;;;;;;6214727;23;20193;-77
2022/07/05 01:46:33;;;;;;;1.92;1.55;;;18.10;86.80;;;;;;6214424;23;20186;-73
2022/07/05 01:49:05;;;;;;;3.30;1.80;;;18.20;86.90;;;;;;6214801;23;20454;-73
2022/07/05 01:51:39;;;;;;;3.65;1.55;;;18.10;87.40;;;;;;6214869;23;20156;-76
2022/07/05 01:54:07;;;;;;;2.35;1.33;;;18.00;88.00;;;;;;6214162;23;20159;-74
2022/07/05 01:56:37;;;;;;;2.53;1.50;;;18.00;87.70;;;;;;6215324;23;20160;-75
2022/07/05 01:59:03;;;;;;;2.00;1.60;;;18.00;89.00;;;;;;6215120;23;20153;-76
2022/07/05 02:01:39;;;;;;;3.15;1.70;;;17.90;88.60;;;;;;6215026;23;20164;-72
2022/07/05 02:04:08;;;;;;;2.17;1.60;;;17.90;90.00;;;;;;6215292;23;20250;-77
2022/07/05 02:06:35;;;;;;;2.67;1.38;;;17.90;89.50;;;;;;6216126;23;20200;-76
2022/07/05 02:09:01;;;;;;;3.38;1.70;;;17.80;89.40;;;;;;6215717;23;20181;-76
2022/07/05 02:11:27;;;;;;;2.72;1.50;;;17.80;89.90;;;;;;6214686;23;20215;-75
2022/07/05 02:13:58;;;;;;;2.70;1.50;;;17.70;90.20;;;;;;6214647;23;20149;-76
2022/07/05 02:16:27;;;;;;;2.67;1.60;;;17.70;90.60;;;;;;6214006;23;20157;-76
2022/07/05 02:18:53;;;;;;;2.00;1.50;;;17.60;90.50;;;;;;6215503;23;20236;-75
2022/07/05 02:21:19;;;;;;;3.80;1.70;;;17.60;90.70;;;;;;6215640;23;20177;-76
2022/07/05 02:23:48;;;;;;;3.08;1.77;;;17.60;90.80;;;;;;6230061;23;20231;-75
2022/07/05 02:26:16;;;;;;;3.25;1.80;;;17.60;91.00;;;;;;6215336;23;20190;-74
2022/07/05 02:28:42;;;;;;;2.30;1.90;;;17.50;91.30;;;;;;6213996;23;20149;-75
2022/07/05 02:31:10;;;;;;;3.60;1.92;;;17.50;91.20;;;;;;6213573;23;20180;-71
2022/07/05 02:33:35;;;;;;;2.83;1.88;;;17.40;91.30;;;;;;6214267;23;20223;-76
2022/07/05 02:36:13;;;;;;;2.70;1.48;;;17.40;91.50;;;;;;6189767;23;20248;-75
2022/07/05 02:38:40;;;;;;;2.53;1.65;;;17.40;92.50;;;;;;6189863;23;20164;-75
2022/07/05 02:41:10;;;;;;;3.05;1.75;;;17.40;91.90;;;;;;6188888;23;20177;-76
2022/07/05 02:43:36;;;;;;;6.05;2.00;;;17.30;92.10;;;;;;6189538;23;20169;-75
2022/07/05 02:46:03;;;;;;;2.25;1.80;;;17.30;92.20;;;;;;6188678;23;20184;-76
2022/07/05 02:48:31;;;;;;;3.17;1.98;;;17.20;92.40;;;;;;6188417;23;20207;-75
2022/07/05 02:50:57;;;;;;;2.17;1.83;;;17.20;92.60;;;;;;6189209;23;20158;-75
2022/07/05 02:53:25;;;;;;;2.75;1.80;;;17.20;92.80;;;;;;6189788;23;20200;-75
2022/07/05 02:55:51;;;;;;;2.95;1.70;;;17.10;92.90;;;;;;6188780;23;20165;-75
2022/07/05 02:58:22;;;;;;;2.40;1.77;;;17.10;93.10;;;;;;6189759;23;20221;-76
2022/07/05 03:00:51;;;;;;;4.07;1.88;;;17.10;93.30;;;;;;6189345;23;20199;-76
2022/07/05 03:03:16;;;;;;;2.97;1.85;;;17.10;93.50;;;;;;6189030;23;20180;-74
2022/07/05 03:05:47;;;;;;;3.05;2.10;;;17.00;93.70;;;;;;6189260;23;20181;-76
2022/07/05 03:08:12;;;;;;;2.78;1.80;;;17.00;94.10;;;;;;6189384;23;20169;-75
2022/07/05 03:10:43;;;;;;;2.15;1.88;;;17.00;94.10;;;;;;6190448;23;20210;-76
2022/07/05 03:13:09;;;;;;;2.75;1.65;;;17.00;94.60;;;;;;6219154;23;20122;-75
2022/07/05 03:15:34;;;;;;;3.33;1.42;;;17.00;94.40;;;;;;6191897;23;20184;-77
2022/07/05 03:18:02;;;;;;;2.92;1.95;;;17.00;94.60;;;;;;6192295;23;20212;-76
2022/07/05 03:20:28;;;;;;;3.60;2.00;;;17.00;94.60;;;;;;6192606;23;20157;-75
2022/07/05 03:22:54;;;;;;;2.88;1.83;;;16.90;95.00;;;;;;6191838;23;20227;-76
2022/07/05 03:25:19;;;;;;;2.90;1.92;;;17.00;94.90;;;;;;6191600;23;20176;-76
2022/07/05 03:27:48;;;;;;;2.42;1.80;;;16.90;95.20;;;;;;6192349;23;20223;-75
2022/07/05 03:30:13;;;;;;;2.88;1.92;;;16.90;95.30;;;;;;6191882;23;20280;-74
2022/07/05 03:32:41;;;;;;;3.05;1.90;;;16.90;95.40;;;;;;6192399;23;20177;-76
2022/07/05 03:35:07;;;;;;;4.18;2.33;;;16.90;95.60;;;;;;6207354;23;20167;-75
2022/07/05 03:37:35;;;;;;;2.63;2.10;;;16.90;95.80;;;;;;6217527;23;20173;-77
2022/07/05 03:40:01;;;;;;;3.58;2.22;;;16.90;96.00;;;;;;6216995;23;20158;-76
2022/07/05 03:42:27;;;;;;;3.45;2.35;;;16.80;96.10;;;;;;6216994;23;20246;-74
2022/07/05 03:44:52;;;;;;;4.82;2.47;;;16.90;96.40;;;;;;6217236;23;20153;-76
2022/07/05 03:47:22;;;;;;;5.15;2.30;;;16.80;96.50;;;;;;6216848;23;20184;-77
2022/07/05 03:49:47;;;;;;;2.55;2.00;;;16.80;96.80;;;;;;6217254;23;20153;-75
2022/07/05 03:52:15;;;;;;;4.28;2.30;;;16.80;96.80;;;;;;6218245;23;20149;-76
2022/07/05 03:54:44;;;;;;;2.42;2.00;;;16.80;96.90;;;;;;6216741;23;20149;-75
2022/07/05 03:57:11;;;;;;;3.28;2.05;;;16.80;97.20;;;;;;6217661;23;20157;-74
2022/07/05 03:59:36;;;;;;;3.05;2.22;;;16.80;97.30;;;;;;6225571;23;20185;-75
2022/07/05 04:02:02;;;;;;;4.15;2.50;;;16.70;97.40;;;;;;6226374;23;20211;-77
2022/07/05 04:04:28;;;;;;;4.80;2.33;;;16.70;97.70;;;;;;6218088;23;20229;-74
2022/07/05 04:06:53;;;;;;;3.58;2.70;;;16.70;97.70;;;;;;6217928;23;20550;-74
2022/07/05 04:09:21;;;;;;;4.97;2.58;;;16.70;97.90;;;;;;6217207;23;20173;-74
2022/07/05 04:11:49;;;;;;;3.00;2.15;;;16.70;98.20;;;;;;6217099;23;20145;-75
2022/07/05 04:14:17;;;;;;;2.65;2.25;;;16.70;98.50;;;;;;6218104;23;20207;-75
2022/07/05 04:16:45;;;;;;;4.32;2.92;;;16.70;98.60;;;;;;6218354;23;20157;-76
2022/07/05 04:19:11;;;;;;;3.55;2.60;;;16.80;99.10;;;;;;6217653;23;20203;-75
2022/07/05 04:21:38;;;;;;;4.25;2.78;;;16.80;99.00;;;;;;6218002;23;20160;-74
2022/07/05 04:24:04;;;;;;;5.45;3.08;;;16.80;99.10;;;;;;6215847;23;20410;-77
2022/07/05 04:26:30;;;;;;;3.90;3.03;;;16.80;99.30;;;;;;6215948;23;20284;-75
2022/07/05 04:28:56;;;;;;;3.70;2.70;;;16.80;99.60;;;;;;6216233;23;20204;-75
2022/07/05 04:31:21;;;;;;;3.88;2.80;;;16.80;99.70;;;;;;6215260;23;20149;-74
2022/07/05 04:33:50;;;;;;;3.67;2.60;;;16.80;99.90;;;;;;6215465;23;20160;-75
2022/07/05 04:36:15;;;;;;;3.50;2.80;;;16.80;99.90;;;;;;6191985;23;20180;-75
2022/07/05 04:38:43;;;;;;;3.95;2.53;;;16.80;99.90;;;;;;6190535;23;20157;-76
2022/07/05 04:41:09;;;;;;;3.97;2.60;;;16.80;99.90;;;;;;6191585;23;20172;-77
2022/07/05 04:43:34;;;;;;;4.75;2.50;;;16.90;99.90;;;;;;6191623;23;20208;-74
2022/07/05 04:46:00;;;;;;;3.22;2.47;;;16.90;99.90;;;;;;6190846;23;20296;-75
2022/07/05 04:48:28;;;;;;;9.00;2.78;;;16.90;99.90;;;;;;6189847;23;20185;-77
2022/07/05 04:50:54;;;;;;;2.70;2.40;;;16.90;99.90;;;;;;6190635;23;20149;-73
2022/07/05 04:53:22;;;;;;;4.03;2.83;;;17.00;99.90;;;;;;6190256;23;20192;-75
2022/07/05 04:55:50;;;;;;;3.83;2.67;;;17.00;99.90;;;;;;6190849;23;20161;-76
2022/07/05 04:58:15;;;;;;;4.25;2.83;;;17.00;99.90;;;;;;6190574;23;20153;-76
2022/07/05 05:00:41;;;;;;;3.75;2.67;;;17.10;99.90;;;;;;6191380;23;20153;-77
2022/07/05 05:03:07;;;;;;;3.08;2.42;;;17.10;99.90;;;;;;6190729;23;20181;-75
2022/07/05 05:05:32;;;;;;;2.92;2.63;;;17.20;99.90;;;;;;6191187;23;20161;-76
2022/07/05 05:07:58;;;;;;;5.45;2.67;;;17.20;99.90;;;;;;6190304;23;20164;-73
2022/07/05 05:10:26;;;;;;;2.78;2.33;;;17.30;99.90;;;;;;6190701;23;20240;-76
2022/07/05 05:12:52;;;;;;;4.35;2.60;;;17.30;99.90;;;;;;6190490;23;20165;-75
2022/07/05 05:15:19;;;;;;;3.15;2.70;;;17.40;99.90;;;;;;6191643;23;20149;-70
2022/07/05 05:17:47;;;;;;;3.50;2.70;;;17.40;99.90;;;;;;6209434;23;20150;-76
2022/07/05 05:20:15;;;;;;;3.45;2.88;;;17.50;99.90;;;;;;6190209;23;20169;-76
2022/07/05 05:22:42;;;;;;;3.10;2.40;;;17.50;99.90;;;;;;6189984;23;20206;-74
2022/07/05 05:25:13;;;;;;;3.88;2.65;;;17.60;99.90;;;;;;6189439;23;20161;-75
2022/07/05 05:27:47;;;;;;;2.55;2.35;;;17.60;99.90;;;;;;6189083;23;20192;-76
2022/07/05 05:30:14;;;;;;;3.83;2.60;;;17.70;99.90;;;;;;6189736;23;20174;-75
2022/07/05 05:32:39;;;;;;;3.35;2.63;;;17.70;99.90;;;;;;6189922;23;20176;-75
2022/07/05 05:35:06;;;;;;;3.22;2.47;;;17.80;99.90;;;;;;6203598;23;20173;-75
2022/07/05 05:37:48;;;;;;;4.18;2.95;;;17.90;99.90;;;;;;6215190;23;20223;-77
2022/07/05 05:40:14;;;;;;;5.65;3.00;;;17.90;99.90;;;;;;6214632;23;20170;-78
2022/07/05 05:42:43;;;;;;;4.25;3.25;;;18.00;99.90;;;;;;6215218;23;20157;-77
2022/07/05 05:45:09;;;;;;;3.92;2.78;;;18.10;99.90;;;;;;6214997;23;20160;-76
2022/07/05 05:47:46;;;;;;;5.18;2.70;;;18.10;99.90;;;;;;6213911;23;20199;-75
2022/07/05 05:50:21;;;;;;;5.13;2.67;;;18.20;99.90;;;;;;6214055;23;20160;-78
2022/07/05 05:52:47;;;;;;;3.85;2.88;;;18.30;99.90;;;;;;6214374;23;20145;-78
2022/07/05 05:55:12;;;;;;;4.22;2.47;;;18.30;99.90;;;;;;6213828;23;20157;-77
2022/07/05 05:57:40;;;;;;;5.32;2.83;;;18.40;99.90;;;;;;6214521;23;20196;-77
2022/07/05 06:00:09;;;;;;;3.60;2.47;;;18.40;99.90;;;;;;6214416;23;20236;-76
2022/07/05 06:02:38;;;;;;;5.28;2.70;;;18.50;99.90;;;;;;6213689;23;20248;-75
2022/07/05 06:05:06;;;;;;;3.75;2.47;;;18.50;99.90;;;;;;6215951;23;20184;-77
2022/07/05 06:07:42;;;;;;;6.93;2.72;;;18.60;99.90;;;;;;6214928;23;20220;-73
2022/07/05 06:10:08;;;;;;;4.72;2.83;;;18.60;99.90;;;;;;6215547;23;20176;-74
2022/07/05 06:12:38;;;;;;;4.93;2.95;;;18.70;99.90;;;;;;6214635;23;20187;-78
2022/07/05 06:15:06;;;;;;;2.90;2.47;;;18.70;99.90;;;;;;6214531;23;20506;-73
2022/07/05 06:17:36;;;;;;;6.10;2.97;;;18.80;99.90;;;;;;6214341;23;20153;-72
2022/07/05 06:20:06;;;;;;;3.88;2.83;;;18.90;99.90;;;;;;6214172;23;20245;-76
2022/07/05 06:22:31;;;;;;;3.38;2.63;;;18.90;99.90;;;;;;6214822;23;20160;-77
2022/07/05 06:24:59;;;;;;;3.83;2.30;;;19.00;99.90;;;;;;6214270;23;20154;-79
2022/07/05 06:27:27;;;;;;;4.78;2.63;;;19.00;99.90;;;;;;6213693;23;20272;-76
2022/07/05 06:29:53;;;;;;;4.43;2.95;;;19.10;99.90;;;;;;6214514;23;20157;-81
2022/07/05 06:32:21;;;;;;;3.88;2.88;;;19.10;99.90;;;;;;6213542;23;20157;-74
2022/07/05 06:34:49;;;;;;;4.63;2.60;;;19.20;99.90;;;;;;6213593;23;20173;-75
2022/07/05 06:37:17;;;;;;;3.55;3.00;;;19.20;99.90;;;;;;6212943;23;20241;-75
2022/07/05 06:39:43;;;;;;;4.72;3.55;;;19.30;99.90;;;;;;6213190;23;20149;-75
2022/07/05 06:42:11;;;;;;;3.65;2.72;;;19.30;99.90;;;;;;6217003;23;20160;-75
2022/07/05 06:44:39;;;;;;;2.63;2.40;;;19.40;99.90;;;;;;6212673;23;20153;-73
2022/07/05 06:47:07;;;;;;;7.00;2.83;;;19.40;99.90;;;;;;6212150;23;20369;-73
2022/07/05 06:49:32;;;;;;;5.25;2.67;;;19.50;99.90;;;;;;6212804;23;20535;-75
2022/07/05 06:51:58;;;;;;;4.82;2.60;;;19.60;99.90;;;;;;6212488;23;20425;-78
2022/07/05 06:54:24;;;;;;;3.47;2.60;;;19.60;99.90;;;;;;6216861;23;20177;-76
2022/07/05 06:56:49;;;;;;;5.25;2.83;;;19.70;99.90;;;;;;6221027;23;20192;-76
2022/07/05 06:59:15;;;;;;;4.05;2.58;;;19.80;99.90;;;;;;6213284;23;20192;-77
2022/07/05 07:01:43;;;;;;;5.03;2.85;;;19.80;99.90;;;;;;6213600;23;20272;-73
2022/07/05 07:04:11;;;;;;;3.58;2.58;;;19.80;99.90;;;;;;6212559;23;20146;-77
2022/07/05 07:06:37;;;;;;;3.22;2.10;;;19.90;99.90;;;;;;6212245;23;20449;-74
2022/07/05 07:09:17;;;;;;;4.18;2.50;;;19.90;99.90;;;;;;6212008;23;20229;-75
2022/07/05 07:11:44;;;;;;;4.82;3.22;;;20.00;99.90;;;;;;6213657;23;20187;-76
2022/07/05 07:14:12;;;;;;;2.95;2.38;;;20.10;99.90;;;;;;6213851;23;20150;-73
2022/07/05 07:16:40;;;;;;;2.75;2.47;;;20.20;99.90;;;;;;6213601;23;20166;-75
2022/07/05 07:19:08;;;;;;;3.72;2.55;;;20.20;99.90;;;;;;6212132;23;20201;-74
2022/07/05 07:21:36;;;;;;;3.03;2.28;;;20.30;99.90;;;;;;6212731;23;20141;-73
2022/07/05 07:24:02;;;;;;;4.53;2.47;;;20.30;99.90;;;;;;6212298;23;20239;-73
2022/07/05 07:26:27;;;;;;;2.90;2.20;;;20.40;99.90;;;;;;6212420;23;20173;-73
2022/07/05 07:28:56;;;;;;;4.93;2.70;;;20.50;99.90;;;;;;6212271;23;20157;-73
2022/07/05 07:31:21;;;;;;;4.43;2.92;;;20.60;99.90;;;;;;6212125;23;20189;-73
2022/07/05 07:33:47;;;;;;;3.53;2.70;;;20.60;99.90;;;;;;6212527;23;20161;-74
2022/07/05 07:36:15;;;;;;;3.55;2.15;;;20.60;99.90;;;;;;6187926;23;20141;-77
2022/07/05 07:38:43;;;;;;;2.60;2.40;;;20.70;99.90;;;;;;6187751;23;20165;-79
2022/07/05 07:41:09;;;;;;;2.97;2.20;;;20.70;99.90;;;;;;6187669;23;20184;-76
2022/07/05 07:43:37;;;;;;;4.85;2.78;;;20.70;99.90;;;;;;6188733;23;20181;-78
2022/07/05 07:46:02;;;;;;;5.18;2.40;;;20.80;99.90;;;;;;6186777;23;20244;-80
2022/07/05 07:48:30;;;;;;;4.05;2.30;;;20.80;99.90;;;;;;6188380;23;20150;-74
2022/07/05 07:50:56;;;;;;;3.90;2.17;;;20.90;99.90;;;;;;6187326;23;20453;-75
2022/07/05 07:53:21;;;;;;;4.15;2.88;;;20.90;99.90;;;;;;6187836;23;20181;-80
2022/07/05 07:55:51;;;;;;;4.43;2.40;;;21.00;99.90;;;;;;6187821;23;20157;-81
2022/07/05 07:58:17;;;;;;;3.10;2.67;;;21.00;99.90;;;;;;6188150;23;20146;-81
2022/07/05 08:00:42;;;;;;;4.10;2.15;;;21.10;99.90;;;;;;6189582;23;20153;-79
2022/07/05 08:03:08;;;;;;;2.85;2.30;;;21.10;99.90;;;;;;6189474;23;20233;-74
2022/07/05 08:05:36;;;;;;;2.85;2.33;;;21.20;99.90;;;;;;6190423;23;20153;-80
2022/07/05 08:08:04;;;;;;;5.57;2.28;;;21.20;99.90;;;;;;6188829;23;20145;-76
2022/07/05 08:10:29;;;;;;;3.40;2.30;;;21.20;99.90;;;;;;6190093;23;20149;-81
2022/07/05 08:12:57;;;;;;;3.03;2.60;;;21.30;99.90;;;;;;6191437;23;20196;-77
2022/07/05 08:15:23;;;;;;;3.65;2.17;;;21.30;99.90;;;;;;6192780;23;20180;-81
2022/07/05 08:23:19;;;;;;;2.88;2.13;;;21.40;99.90;;;;;;6215718;23;20236;-75
2022/07/05 08:25:45;;;;;;;2.20;1.88;;;21.50;99.90;;;;;;6189183;23;20162;-73
2022/07/05 08:28:13;;;;;;;3.50;2.28;;;21.50;99.90;;;;;;6190054;23;20212;-80
2022/07/05 08:30:41;;;;;;;2.95;2.00;;;21.60;99.90;;;;;;6189553;23;20153;-81
2022/07/05 08:33:06;;;;;;;3.53;2.22;;;21.70;99.90;;;;;;6190529;23;20180;-81
2022/07/05 08:35:34;;;;;;;3.92;1.90;;;21.80;99.90;;;;;;6211844;23;20165;-76
2022/07/05 08:38:00;;;;;;;2.38;1.83;;;21.80;99.90;;;;;;6231730;23;20209;-73
2022/07/05 08:40:31;;;;;;;2.20;1.90;;;21.90;99.90;;;;;;6222450;23;20230;-77
2022/07/05 08:42:58;;;;;;;3.38;1.75;;;22.00;99.90;;;;;;6213983;23;20292;-81
2022/07/05 08:45:27;;;;;;;2.50;1.70;;;22.10;99.90;;;;;;6214512;23;20209;-79
2022/07/05 08:47:56;;;;;;;2.50;2.28;;;22.10;99.90;;;;;;6215170;23;20181;-76
2022/07/05 08:50:28;;;;;;;3.03;1.67;;;22.20;99.90;;;;;;6214811;23;20173;-78
2022/07/05 08:52:53;;;;;;;2.97;1.88;;;22.30;99.90;;;;;;6214041;23;20172;-76
2022/07/05 08:55:19;;;;;;;2.20;1.75;;;22.30;99.90;;;;;;6213657;23;20520;-79
2022/07/05 08:57:45;;;;;;;3.38;2.17;;;22.40;99.90;;;;;;6214534;23;20189;-77
2022/07/05 09:00:14;;;;;;;4.00;2.08;;;22.50;99.90;;;;;;6213829;23;20219;-80
2022/07/05 09:02:42;;;;;;;2.70;1.95;;;22.60;99.90;;;;;;6213951;23;20165;-81
2022/07/05 09:05:12;;;;;;;3.83;2.10;;;22.70;99.90;;;;;;6213475;23;20178;-71
2022/07/05 09:07:43;;;;;;;2.58;2.00;;;22.80;99.80;;;;;;6214185;23;20196;-80
2022/07/05 09:10:11;;;;;;;2.38;1.65;;;22.90;99.60;;;;;;6213810;23;20153;-87
2022/07/05 09:12:37;;;;;;;3.25;1.70;;;23.00;99.70;;;;;;6213655;23;20182;-80
2022/07/05 09:15:05;;;;;;;2.45;1.60;;;23.10;99.70;;;;;;6214653;23;20150;-79
2022/07/05 09:17:31;;;;;;;4.35;1.35;;;23.10;99.30;;;;;;6212821;23;20169;-79
2022/07/05 09:20:14;;;;;;;1.50;1.20;;;23.20;98.80;;;;;;6213607;23;20177;-74
2022/07/05 09:22:47;;;;;;;2.42;1.30;;;23.20;96.80;;;;;;6215003;23;20125;-76
2022/07/05 09:25:19;;;;;;;2.30;1.40;;;23.30;97.20;;;;;;6213805;23;20153;-79
2022/07/05 09:27:58;;;;;;;2.20;1.35;;;23.20;97.20;;;;;;6213804;23;20270;-78
2022/07/05 09:30:41;;;;;;;2.30;1.40;;;23.30;97.00;;;;;;6216456;23;20157;-75
2022/07/05 09:33:10;;;;;;;3.47;1.40;;;23.30;97.00;;;;;;6214701;23;20204;-81
2022/07/05 09:35:41;;;;;;;2.70;1.55;;;23.30;97.30;;;;;;6214299;23;20197;-83
2022/07/05 09:38:23;;;;;;;3.40;1.42;;;23.40;97.00;;;;;;6213957;23;20175;-79
2022/07/05 09:40:56;;;;;;;2.97;1.40;;;23.60;96.70;;;;;;6213780;23;20318;-79
2022/07/05 09:43:29;;;;;;;4.75;1.70;;;23.70;96.80;;;;;;6213547;23;20177;-83
2022/07/05 09:46:02;;;;;;;3.72;1.92;;;23.70;94.70;;;;;;6213467;23;20150;-78
2022/07/05 09:48:30;;;;;;;2.25;1.50;;;23.70;94.40;;;;;;6213625;23;20229;-81
2022/07/05 09:51:16;;;;;;;2.00;1.50;;;23.70;94.30;;;;;;6213981;23;20177;-79
2022/07/05 09:53:56;;;;;;;1.55;1.17;;;23.70;94.20;;;;;;6214267;23;20212;-80
2022/07/05 09:56:26;;;;;;;1.92;1.17;;;23.70;94.40;;;;;;6213828;23;20187;-81
2022/07/05 09:58:52;;;;;;;1.77;1.20;;;23.70;95.00;;;;;;6214503;23;20177;-82
2022/07/05 10:01:28;;;;;;;1.40;1.05;;;23.70;95.20;;;;;;6215544;23;20160;-80
2022/07/05 10:03:58;;;;;;;3.95;1.50;;;23.90;94.70;;;;;;6216806;23;20157;-77
2022/07/05 10:06:26;;;;;;;1.60;1.15;;;23.90;93.50;;;;;;6214153;23;20181;-81
2022/07/05 10:08:55;;;;;;;1.60;1.20;;;24.00;94.00;;;;;;6213662;23;20157;-81
2022/07/05 10:11:26;;;;;;;1.80;1.08;;;24.00;93.30;;;;;;6214080;23;20163;-79
2022/07/05 10:13:55;;;;;;;3.13;1.10;;;24.10;93.60;;;;;;6215896;23;20313;-77
2022/07/05 10:16:25;;;;;;;1.50;1.10;;;24.10;93.50;;;;;;6236963;23;20165;-71
2022/07/05 10:18:54;;;;;;;1.88;1.10;;;24.10;93.40;;;;;;6218947;23;20165;-79
2022/07/05 10:21:20;;;;;;;1.23;1.08;;;24.20;93.00;;;;;;6213886;23;20252;-83
2022/07/05 10:23:53;;;;;;;1.65;1.02;;;24.30;93.00;;;;;;6214543;23;20150;-80
2022/07/05 10:26:22;;;;;;;1.75;1.30;;;24.30;91.80;;;;;;6213283;23;20177;-81
2022/07/05 10:28:53;;;;;;;1.85;1.00;;;24.30;92.10;;;;;;6214250;23;20184;-82
2022/07/05 10:31:23;;;;;;;2.13;1.15;;;24.40;91.30;;;;;;6213718;23;20278;-79
2022/07/05 10:33:52;;;;;;;1.30;1.05;;;24.30;91.50;;;;;;6212550;23;20539;-81
2022/07/05 10:36:21;;;;;;;9.07;1.50;;;24.40;90.30;;;;;;6187927;23;20196;-78
2022/07/05 10:38:47;;;;;;;1.70;0.88;;;24.50;90.80;;;;;;6190481;23;20165;-80
2022/07/05 10:41:17;;;;;;;1.40;1.10;;;24.60;91.30;;;;;;6190197;23;20157;-78
2022/07/05 10:43:45;;;;;;;2.33;1.27;;;24.80;91.00;;;;;;6189606;23;20157;-78
2022/07/05 10:46:32;;;;;;;3.30;1.70;;;25.00;89.40;;;;;;6188559;23;20226;-79
2022/07/05 10:49:20;;;;;;;1.70;1.23;;;25.10;82.90;;;;;;6187944;23;20137;-80
2022/07/05 10:51:49;;;;;;;2.42;1.42;;;25.20;85.10;;;;;;6188009;23;20180;-71
2022/07/05 10:54:14;;;;;;;1.42;1.10;;;25.20;87.20;;;;;;6187953;23;20156;-81
2022/07/05 10:56:40;;;;;;;1.40;0.95;;;25.30;87.10;;;;;;6189054;23;20173;-76
2022/07/05 10:59:09;;;;;;;1.88;1.20;;;25.40;87.10;;;;;;6187683;23;20181;-78
2022/07/05 11:01:39;;;;;;;1.98;1.30;;;25.50;86.40;;;;;;6188587;23;20164;-79
2022/07/05 11:04:07;;;;;;;3.25;1.00;;;25.70;81.50;;;;;;6189152;23;20211;-78
2022/07/05 11:06:39;;;;;;;1.42;1.08;;;25.90;84.60;;;;;;6187551;23;20206;-76
2022/07/05 11:09:11;;;;;;;1.30;1.02;;;26.10;83.30;;;;;;6189556;23;20169;-77
2022/07/05 11:11:44;;;;;;;1.10;0.90;;;26.30;83.90;;;;;;6188965;23;20258;-79
2022/07/05 11:14:19;;;;;;;3.05;1.20;;;26.50;84.40;;;;;;6190633;23;20149;-78
2022/07/05 11:17:08;;;;;;;2.00;1.10;;;26.70;82.60;;;;;;6196473;23;20172;-79
2022/07/05 11:19:34;;;;;;;2.47;1.20;;;26.90;80.40;;;;;;6189537;23;20192;-79
2022/07/05 11:22:05;;;;;;;1.70;0.90;;;26.90;80.00;;;;;;6188753;23;20251;-80
2022/07/05 11:24:41;;;;;;;1.55;1.10;;;26.90;79.70;;;;;;6188528;23;20153;-83
2022/07/05 11:27:12;;;;;;;2.17;0.93;;;26.90;76.70;;;;;;6189457;23;20235;-82
2022/07/05 11:29:45;;;;;;;1.55;1.17;;;26.90;76.00;;;;;;6188637;23;20205;-78
2022/07/05 11:32:13;;;;;;;3.45;1.13;;;26.90;74.10;;;;;;6196022;23;20325;-68
2022/07/05 11:34:41;;;;;;;2.25;1.30;;;27.00;75.40;;;;;;6219057;23;20186;-81
2022/07/05 11:37:28;;;;;;;2.78;1.17;;;27.00;75.10;;;;;;6216067;23;20146;-81
2022/07/05 11:40:14;;;;;;;1.80;0.93;;;27.20;72.60;;;;;;6218409;23;20149;-80
2022/07/05 11:42:47;;;;;;;1.30;1.08;;;27.30;75.20;;;;;;6216931;23;20209;-80
2022/07/05 11:45:17;;;;;;;1.17;1.00;;;27.40;74.30;;;;;;6216030;23;20404;-79
2022/07/05 11:47:44;;;;;;;1.40;1.10;;;27.60;76.00;;;;;;6215594;23;20169;-76
2022/07/05 11:50:13;;;;;;;1.20;1.10;;;27.80;76.00;;;;;;6215224;23;20149;-81
2022/07/05 11:52:40;;;;;;;2.85;1.20;;;27.90;74.80;;;;;;6214793;23;20251;-79
2022/07/05 11:55:08;;;;;;;1.17;1.08;;;28.10;73.70;;;;;;6215223;23;20184;-79
2022/07/05 11:57:36;;;;;;;2.58;1.00;;;28.20;73.20;;;;;;6215952;23;20153;-79
2022/07/05 12:00:04;;;;;;;1.10;1.00;;;28.30;72.40;;;;;;6216455;23;20176;-78
2022/07/05 12:02:29;;;;;;;1.30;1.05;;;28.30;70.10;;;;;;6215405;23;20184;-79
2022/07/05 12:04:57;;;;;;;3.08;1.30;;;28.40;71.20;;;;;;6216032;23;20161;-79
2022/07/05 12:07:34;;;;;;;1.30;1.20;;;28.50;70.10;;;;;;6214929;23;20169;-79
2022/07/05 12:12:49;;;;;;;3.33;1.40;;;28.60;67.90;;;;;;6215757;23;20152;-80
2022/07/05 12:15:16;;;;;;;1.75;1.23;;;28.60;67.70;;;;;;6215152;23;20189;-77
2022/07/05 12:17:44;;;;;;;1.30;1.00;;;28.70;67.70;;;;;;6214981;23;20167;-73
2022/07/05 12:20:13;;;;;;;1.33;1.00;;;28.80;66.60;;;;;;6215229;23;20157;-80
2022/07/05 12:22:44;;;;;;;3.83;1.00;;;28.80;66.50;;;;;;6214078;23;20177;-74
2022/07/05 12:25:18;;;;;;;1.60;1.10;;;29.00;65.70;;;;;;6215027;23;20177;-80
2022/07/05 12:27:47;;;;;;;2.28;1.13;;;29.10;65.90;;;;;;6215877;23;20280;-81
2022/07/05 12:30:13;;;;;;;2.03;1.35;;;29.20;64.60;;;;;;6215347;23;20224;-81
2022/07/05 12:32:57;;;;;;;1.67;1.02;;;29.20;62.00;;;;;;6215422;23;20157;-80
2022/07/05 12:35:30;;;;;;;0.93;0.82;;;29.00;57.40;;;;;;6215176;23;20188;-79
2022/07/05 12:38:03;;;;;;;1.90;1.13;;;28.90;61.40;;;;;;6215141;23;20457;-80
2022/07/05 12:40:32;;;;;;;4.10;0.90;;;28.80;62.90;;;;;;6216014;23;20168;-79
2022/07/05 12:43:04;;;;;;;2.72;1.00;;;28.80;63.50;;;;;;6215441;23;20154;-81
2022/07/05 12:45:30;;;;;;;2.83;1.10;;;28.90;59.80;;;;;;6215680;23;20180;-78
2022/07/05 12:48:01;;;;;;;3.00;1.10;;;28.90;62.00;;;;;;6214424;23;20173;-75
2022/07/05 12:50:31;;;;;;;1.13;0.88;;;29.00;61.30;;;;;;6216157;23;20623;-78
2022/07/05 12:58:57;;;;;;;2.53;1.00;;;29.20;60.50;;;;;;6217490;23;20144;-79
2022/07/05 13:01:42;;;;;;;0.85;0.70;;;29.20;58.50;;;;;;6217788;23;20181;-78
2022/07/05 13:04:10;;;;;;;2.10;1.30;;;29.20;59.90;;;;;;6215726;23;20157;-77
2022/07/05 13:07:01;;;;;;;1.52;1.13;;;29.20;59.20;;;;;;6213888;23;20181;-75
2022/07/05 13:09:32;;;;;;;1.08;0.80;;;29.20;57.40;;;;;;6214962;23;20149;-73